createdAt,value
2022-07-31T00:00:33.368Z,106.29
2022-07-31T00:01:28.655Z,107.11
2022-07-31T00:02:23.967Z,107.32
2022-07-31T00:03:19.620Z,107.18
2022-07-31T00:04:14.767Z,107.18
2022-07-31T00:05:10.621Z,107.32
2022-07-31T00:06:05.894Z,107.04
2022-07-31T00:07:01.666Z,107.59
2022-07-31T00:07:56.965Z,108.36
2022-07-31T00:08:52.135Z,108.50
2022-07-31T00:09:53.395Z,107.94
2022-07-31T00:10:44.573Z,107.80
2022-07-31T00:11:38.829Z,107.94
2022-07-31T00:12:34.961Z,107.11
2022-07-31T00:13:58.173Z,106.90
2022-07-31T00:14:26.590Z,105.75
2022-07-31T00:15:20.814Z,106.15
2022-07-31T00:16:17.235Z,105.68
2022-07-31T00:17:11.973Z,105.62
2022-07-31T00:18:07.124Z,105.02
2022-07-31T00:19:03.003Z,105.48
2022-07-31T00:19:58.291Z,106.22
2022-07-31T00:20:53.589Z,107.32
2022-07-31T00:21:48.771Z,106.83
2022-07-31T00:22:43.932Z,105.75
2022-07-31T00:23:40.318Z,105.62
2022-07-31T00:24:35.622Z,106.02
2022-07-31T00:25:31.340Z,105.35
2022-07-31T00:26:26.501Z,106.09
2022-07-31T00:27:21.678Z,106.43
2022-07-31T00:28:17.430Z,106.29
2022-07-31T00:29:12.728Z,106.29
2022-07-31T00:30:08.694Z,107.25
2022-07-31T00:31:03.839Z,105.89
2022-07-31T00:31:59.139Z,105.95
2022-07-31T00:32:55.039Z,106.02
2022-07-31T00:33:50.182Z,106.70
2022-07-31T00:34:45.583Z,107.52
2022-07-31T00:35:41.739Z,108.43
2022-07-31T00:36:36.907Z,108.86
2022-07-31T00:37:32.338Z,109.71
2022-07-31T00:38:27.772Z,110.00
2022-07-31T00:39:24.866Z,111.10
2022-07-31T00:40:20.004Z,111.25
2022-07-31T00:41:15.482Z,112.68
2022-07-31T00:42:11.065Z,112.37
2022-07-31T00:43:06.245Z,112.98
2022-07-31T00:44:01.549Z,112.75
2022-07-31T00:44:56.752Z,112.30
2022-07-31T00:45:58.567Z,112.75
2022-07-31T00:46:47.934Z,112.53
2022-07-31T00:47:41.949Z,112.15
2022-07-31T00:48:36.965Z,112.75
2022-07-31T00:49:37.375Z,113.14
2022-07-31T00:50:28.073Z,112.45
2022-07-31T00:51:23.002Z,112.53
2022-07-31T00:52:18.172Z,112.83
2022-07-31T00:53:13.206Z,113.29
2022-07-31T00:54:08.213Z,113.06
2022-07-31T00:55:03.272Z,113.29
2022-07-31T00:55:58.442Z,113.75
2022-07-31T00:56:53.605Z,114.46
2022-07-31T00:57:52.867Z,113.68
2022-07-31T00:58:48.015Z,113.91
2022-07-31T00:59:43.318Z,113.83
2022-07-31T01:00:38.468Z,114.30
2022-07-31T01:01:33.834Z,115.56
2022-07-31T01:02:28.854Z,114.93
2022-07-31T01:03:23.888Z,115.40
2022-07-31T01:04:18.886Z,116.37
2022-07-31T01:05:13.974Z,115.64
2022-07-31T01:06:09.004Z,116.05
2022-07-31T01:07:04.277Z,115.81
2022-07-31T01:07:59.060Z,117.19
2022-07-31T01:08:54.076Z,118.52
2022-07-31T01:09:49.059Z,118.02
2022-07-31T01:10:44.218Z,116.45
2022-07-31T01:11:39.249Z,116.37
2022-07-31T01:12:34.248Z,117.11
2022-07-31T01:13:29.276Z,117.27
2022-07-31T01:14:24.289Z,116.29
2022-07-31T01:15:20.826Z,118.10
2022-07-31T01:16:15.858Z,117.35
2022-07-31T01:17:11.025Z,117.02
2022-07-31T01:18:06.198Z,117.35
2022-07-31T01:19:01.257Z,116.61
2022-07-31T01:19:56.275Z,115.64
2022-07-31T01:20:51.312Z,116.45
2022-07-31T01:21:46.294Z,115.56
2022-07-31T01:22:41.349Z,114.53
2022-07-31T01:23:36.349Z,114.61
2022-07-31T01:24:31.354Z,114.61
2022-07-31T01:25:26.443Z,115.09
2022-07-31T01:26:21.453Z,114.77
2022-07-31T01:27:16.542Z,114.14
2022-07-31T01:28:11.761Z,113.83
2022-07-31T01:29:06.578Z,114.61
2022-07-31T01:30:05.090Z,114.06
2022-07-31T01:31:24.262Z,113.68
2022-07-31T01:31:56.216Z,113.60
2022-07-31T01:32:51.289Z,112.53
2022-07-31T01:33:46.452Z,111.77
2022-07-31T01:34:41.609Z,112.22
2022-07-31T01:35:38.122Z,110.95
2022-07-31T01:36:33.455Z,110.37
2022-07-31T01:37:29.348Z,111.32
2022-07-31T01:38:24.483Z,111.18
2022-07-31T01:39:19.657Z,111.55
2022-07-31T01:40:15.508Z,112.07
2022-07-31T01:41:10.705Z,112.60
2022-07-31T01:42:06.779Z,111.77
2022-07-31T01:43:01.794Z,110.88
2022-07-31T01:43:56.998Z,112.15
2022-07-31T01:44:53.000Z,112.07
2022-07-31T01:45:48.201Z,112.75
2022-07-31T01:46:43.339Z,112.37
2022-07-31T01:47:39.741Z,112.15
2022-07-31T01:48:35.036Z,112.07
2022-07-31T01:49:30.998Z,112.68
2022-07-31T01:50:42.783Z,112.53
2022-07-31T01:51:22.807Z,113.14
2022-07-31T01:52:17.010Z,112.98
2022-07-31T01:53:12.983Z,112.37
2022-07-31T01:54:08.384Z,112.37
2022-07-31T01:55:03.576Z,112.53
2022-07-31T01:56:03.700Z,111.47
2022-07-31T01:56:54.589Z,112.98
2022-07-31T01:57:50.462Z,113.83
2022-07-31T01:58:45.735Z,113.06
2022-07-31T01:59:44.734Z,114.14
2022-07-31T02:00:36.885Z,113.29
2022-07-31T02:01:32.213Z,114.06
2022-07-31T02:02:27.372Z,114.53
2022-07-31T02:03:43.765Z,115.56
2022-07-31T02:04:20.137Z,115.01
2022-07-31T02:05:14.943Z,115.25
2022-07-31T02:06:10.072Z,115.01
2022-07-31T02:07:05.263Z,115.48
2022-07-31T02:08:01.099Z,115.25
2022-07-31T02:08:56.333Z,117.68
2022-07-31T02:09:57.969Z,117.02
2022-07-31T02:10:48.222Z,116.70
2022-07-31T02:11:54.675Z,117.77
2022-07-31T02:12:39.199Z,118.35
2022-07-31T02:13:34.132Z,117.27
2022-07-31T02:14:29.253Z,117.27
2022-07-31T02:15:24.548Z,115.64
2022-07-31T02:16:20.299Z,114.93
2022-07-31T02:17:15.609Z,115.97
2022-07-31T02:18:11.798Z,115.72
2022-07-31T02:19:06.038Z,116.29
2022-07-31T02:20:01.932Z,115.72
2022-07-31T02:20:57.107Z,116.70
2022-07-31T02:21:52.518Z,117.43
2022-07-31T02:22:48.528Z,118.10
2022-07-31T02:23:43.840Z,117.52
2022-07-31T02:24:39.587Z,117.27
2022-07-31T02:25:34.897Z,116.94
2022-07-31T02:26:30.195Z,116.05
2022-07-31T02:27:58.012Z,116.94
2022-07-31T02:28:21.534Z,117.35
2022-07-31T02:29:20.099Z,116.86
2022-07-31T02:30:11.659Z,115.81
2022-07-31T02:31:06.844Z,116.70
2022-07-31T02:32:03.507Z,115.72
2022-07-31T02:32:58.385Z,117.02
2022-07-31T02:33:53.587Z,116.05
2022-07-31T02:34:49.293Z,116.86
2022-07-31T02:35:45.219Z,117.02
2022-07-31T02:36:39.704Z,117.27
2022-07-31T02:37:36.112Z,117.43
2022-07-31T02:38:31.435Z,118.10
2022-07-31T02:39:30.506Z,117.93
2022-07-31T02:40:22.339Z,118.43
2022-07-31T02:41:18.172Z,118.52
2022-07-31T02:42:13.351Z,118.35
2022-07-31T02:43:09.200Z,119.54
2022-07-31T02:44:04.474Z,118.60
2022-07-31T02:44:59.621Z,118.18
2022-07-31T02:45:54.891Z,118.43
2022-07-31T02:46:50.310Z,119.20
2022-07-31T02:47:45.669Z,119.28
2022-07-31T02:48:40.797Z,118.86
2022-07-31T02:49:37.218Z,118.27
2022-07-31T02:50:32.481Z,119.20
2022-07-31T02:51:27.778Z,119.62
2022-07-31T02:52:24.309Z,119.54
2022-07-31T02:53:19.595Z,119.37
2022-07-31T02:54:14.898Z,120.49
2022-07-31T02:55:10.071Z,120.57
2022-07-31T02:56:05.071Z,119.88
2022-07-31T02:57:00.096Z,120.49
2022-07-31T02:57:55.146Z,120.31
2022-07-31T02:58:50.305Z,119.54
2022-07-31T02:59:45.364Z,119.88
2022-07-31T03:00:40.490Z,120.92
2022-07-31T03:01:35.414Z,121.63
2022-07-31T03:02:34.667Z,123.52
2022-07-31T03:03:26.509Z,121.99
2022-07-31T03:04:20.709Z,121.36
2022-07-31T03:05:15.615Z,121.28
2022-07-31T03:06:10.644Z,121.36
2022-07-31T03:07:05.701Z,120.75
2022-07-31T03:08:00.710Z,120.92
2022-07-31T03:08:55.738Z,121.36
2022-07-31T03:09:50.741Z,120.66
2022-07-31T03:10:45.751Z,120.40
2022-07-31T03:11:40.782Z,121.10
2022-07-31T03:12:35.820Z,121.01
2022-07-31T03:13:30.826Z,119.79
2022-07-31T03:14:26.011Z,119.88
2022-07-31T03:15:22.074Z,120.57
2022-07-31T03:16:16.071Z,121.10
2022-07-31T03:17:13.149Z,120.75
2022-07-31T03:18:11.319Z,120.92
2022-07-31T03:19:03.204Z,120.92
2022-07-31T03:19:58.220Z,121.45
2022-07-31T03:20:53.279Z,122.79
2022-07-31T03:21:48.268Z,123.06
2022-07-31T03:22:43.339Z,123.98
2022-07-31T03:23:38.388Z,123.34
2022-07-31T03:24:33.547Z,124.07
2022-07-31T03:25:28.567Z,123.61
2022-07-31T03:26:23.631Z,122.52
2022-07-31T03:27:18.657Z,122.88
2022-07-31T03:28:14.216Z,123.98
2022-07-31T03:29:43.477Z,123.70
2022-07-31T03:30:06.018Z,123.89
2022-07-31T03:31:00.217Z,124.91
2022-07-31T03:31:56.106Z,124.25
2022-07-31T03:32:51.321Z,124.35
2022-07-31T03:33:46.559Z,124.07
2022-07-31T03:34:42.356Z,123.70
2022-07-31T03:35:42.187Z,123.79
2022-07-31T03:36:34.523Z,123.98
2022-07-31T03:37:28.666Z,123.06
2022-07-31T03:38:39.253Z,123.43
2022-07-31T03:39:21.633Z,122.88
2022-07-31T03:40:15.800Z,123.89
2022-07-31T03:41:11.153Z,124.63
2022-07-31T03:42:07.527Z,125.38
2022-07-31T03:43:03.601Z,124.81
2022-07-31T03:43:58.316Z,124.63
2022-07-31T03:44:53.621Z,125.28
2022-07-31T03:45:48.971Z,125.09
2022-07-31T03:46:44.622Z,124.16
2022-07-31T03:47:39.842Z,123.06
2022-07-31T03:48:35.670Z,123.06
2022-07-31T03:49:30.964Z,122.43
2022-07-31T03:50:26.410Z,123.34
2022-07-31T03:51:22.109Z,123.79
2022-07-31T03:52:17.369Z,123.61
2022-07-31T03:53:12.635Z,123.79
2022-07-31T03:54:09.009Z,124.53
2022-07-31T03:55:04.309Z,124.53
2022-07-31T03:56:00.142Z,125.47
2022-07-31T03:56:55.442Z,125.19
2022-07-31T03:57:50.790Z,126.42
2022-07-31T03:58:51.548Z,127.68
2022-07-31T03:59:47.932Z,127.68
2022-07-31T04:00:38.549Z,127.58
2022-07-31T04:02:09.137Z,126.61
2022-07-31T04:02:31.801Z,125.38
2022-07-31T04:03:24.936Z,125.94
2022-07-31T04:04:20.405Z,125.66
2022-07-31T04:05:15.627Z,125.09
2022-07-31T04:06:11.486Z,125.94
2022-07-31T04:07:06.703Z,125.47
2022-07-31T04:08:02.023Z,124.81
2022-07-31T04:08:57.792Z,125.28
2022-07-31T04:09:53.098Z,125.19
2022-07-31T04:10:48.533Z,124.91
2022-07-31T04:11:44.703Z,124.91
2022-07-31T04:12:40.048Z,124.72
2022-07-31T04:13:35.802Z,124.53
2022-07-31T04:14:31.101Z,124.25
2022-07-31T04:15:26.540Z,125.28
2022-07-31T04:16:21.727Z,125.75
2022-07-31T04:17:17.052Z,125.28
2022-07-31T04:18:12.412Z,125.85
2022-07-31T04:19:07.447Z,123.61
2022-07-31T04:20:02.503Z,123.61
2022-07-31T04:20:57.552Z,123.43
2022-07-31T04:21:52.596Z,123.89
2022-07-31T04:22:49.328Z,124.16
2022-07-31T04:23:42.671Z,125.00
2022-07-31T04:24:38.677Z,126.23
2022-07-31T04:25:32.691Z,125.56
2022-07-31T04:26:27.789Z,125.85
2022-07-31T04:27:22.790Z,126.13
2022-07-31T04:28:17.889Z,124.16
2022-07-31T04:29:12.866Z,122.43
2022-07-31T04:30:07.968Z,123.06
2022-07-31T04:31:03.070Z,123.89
2022-07-31T04:31:58.197Z,125.09
2022-07-31T04:32:53.320Z,125.94
2022-07-31T04:33:50.330Z,124.91
2022-07-31T04:34:44.408Z,124.53
2022-07-31T04:35:38.430Z,124.53
2022-07-31T04:36:33.541Z,125.00
2022-07-31T04:37:28.633Z,127.48
2022-07-31T04:38:23.769Z,126.81
2022-07-31T04:39:18.856Z,127.09
2022-07-31T04:40:13.998Z,127.48
2022-07-31T04:41:09.225Z,126.61
2022-07-31T04:42:04.787Z,125.38
2022-07-31T04:43:00.031Z,123.79
2022-07-31T04:43:55.397Z,123.43
2022-07-31T04:44:50.764Z,122.34
2022-07-31T04:45:46.171Z,121.10
2022-07-31T04:46:41.531Z,121.19
2022-07-31T04:47:37.024Z,120.75
2022-07-31T04:48:32.296Z,120.75
2022-07-31T04:49:27.784Z,119.97
2022-07-31T04:50:23.133Z,119.28
2022-07-31T04:51:18.564Z,119.88
2022-07-31T04:52:13.575Z,118.35
2022-07-31T04:53:08.601Z,118.52
2022-07-31T04:54:03.638Z,118.27
2022-07-31T04:54:58.674Z,119.71
2022-07-31T04:55:53.679Z,120.23
2022-07-31T04:56:48.679Z,120.40
2022-07-31T04:57:43.713Z,120.31
2022-07-31T04:58:38.743Z,121.19
2022-07-31T04:59:59.890Z,122.07
2022-07-31T05:00:29.795Z,121.45
2022-07-31T05:01:23.878Z,123.15
2022-07-31T05:02:18.920Z,123.34
2022-07-31T05:03:13.979Z,123.70
2022-07-31T05:04:08.988Z,124.07
2022-07-31T05:05:04.964Z,124.25
2022-07-31T05:06:00.359Z,122.70
2022-07-31T05:06:55.768Z,123.79
2022-07-31T05:07:51.230Z,124.81
2022-07-31T05:08:46.646Z,125.09
2022-07-31T05:09:42.193Z,125.09
2022-07-31T05:10:37.502Z,124.91
2022-07-31T05:11:32.922Z,125.94
2022-07-31T05:12:28.397Z,124.25
2022-07-31T05:13:23.813Z,122.34
2022-07-31T05:14:19.236Z,123.70
2022-07-31T05:15:14.654Z,125.00
2022-07-31T05:16:10.059Z,126.61
2022-07-31T05:17:05.493Z,127.97
2022-07-31T05:18:01.070Z,129.26
2022-07-31T05:18:56.475Z,129.86
2022-07-31T05:19:51.886Z,128.56
2022-07-31T05:20:47.339Z,128.37
2022-07-31T05:21:53.313Z,126.42
2022-07-31T05:22:39.322Z,126.61
2022-07-31T05:23:33.675Z,125.47
2022-07-31T05:24:33.851Z,124.35
2022-07-31T05:25:25.509Z,122.43
2022-07-31T05:26:19.978Z,121.10
2022-07-31T05:27:19.340Z,120.31
2022-07-31T05:28:14.891Z,119.37
2022-07-31T05:29:10.184Z,121.28
2022-07-31T05:30:05.602Z,122.61
2022-07-31T05:31:01.202Z,122.43
2022-07-31T05:32:00.621Z,122.52
2022-07-31T05:32:52.108Z,121.28
2022-07-31T05:33:47.541Z,120.40
2022-07-31T05:34:42.968Z,120.57
2022-07-31T05:35:38.469Z,123.25
2022-07-31T05:36:34.056Z,126.04
2022-07-31T05:37:29.477Z,127.97
2022-07-31T05:38:24.906Z,128.17
2022-07-31T05:39:20.330Z,127.78
2022-07-31T05:40:15.917Z,128.76
2022-07-31T05:41:10.911Z,127.39
2022-07-31T05:42:06.217Z,129.46
2022-07-31T05:43:00.980Z,131.60
2022-07-31T05:43:56.287Z,135.45
2022-07-31T05:44:51.158Z,136.90
2022-07-31T05:45:46.188Z,138.03
2022-07-31T05:46:41.191Z,138.95
2022-07-31T05:47:40.467Z,139.64
2022-07-31T05:48:31.289Z,142.26
2022-07-31T05:49:26.411Z,143.61
2022-07-31T05:50:23.093Z,146.77
2022-07-31T05:51:18.095Z,147.16
2022-07-31T05:52:13.088Z,148.60
2022-07-31T05:53:08.101Z,142.99
2022-07-31T05:54:03.833Z,143.61
2022-07-31T05:54:59.275Z,143.24
2022-07-31T05:55:54.702Z,144.98
2022-07-31T05:56:50.259Z,145.74
2022-07-31T05:57:45.552Z,147.16
2022-07-31T05:58:40.953Z,145.49
2022-07-31T05:59:36.413Z,143.86
2022-07-31T06:00:31.823Z,142.38
2022-07-31T06:01:27.497Z,141.30
2022-07-31T06:02:22.952Z,139.88
2022-07-31T06:03:19.428Z,138.60
2022-07-31T06:04:14.883Z,136.56
2022-07-31T06:05:10.445Z,135.45
2022-07-31T06:06:05.610Z,134.68
2022-07-31T06:07:01.171Z,135.45
2022-07-31T06:07:56.601Z,136.45
2022-07-31T06:08:52.015Z,136.00
2022-07-31T06:09:47.448Z,135.67
2022-07-31T06:10:44.258Z,135.34
2022-07-31T06:11:39.671Z,134.79
2022-07-31T06:12:35.078Z,134.14
2022-07-31T06:13:30.527Z,132.97
2022-07-31T06:14:26.101Z,132.02
2022-07-31T06:15:21.506Z,133.61
2022-07-31T06:16:16.908Z,132.86
2022-07-31T06:17:12.327Z,136.22
2022-07-31T06:18:07.725Z,140.70
2022-07-31T06:19:03.152Z,143.61
2022-07-31T06:19:58.621Z,150.07
2022-07-31T06:20:54.097Z,151.43
2022-07-31T06:21:49.578Z,153.38
2022-07-31T06:22:45.014Z,157.58
2022-07-31T06:23:40.496Z,162.80
2022-07-31T06:24:35.968Z,163.12
2022-07-31T06:25:32.008Z,162.96
2022-07-31T06:26:31.595Z,164.25
2022-07-31T06:27:30.575Z,163.12
2022-07-31T06:28:29.052Z,163.76
2022-07-31T06:29:18.241Z,163.76
2022-07-31T06:30:12.775Z,163.12
2022-07-31T06:31:08.198Z,162.49
2022-07-31T06:32:03.902Z,158.63
2022-07-31T06:32:59.279Z,156.84
2022-07-31T06:33:54.746Z,164.09
2022-07-31T06:34:50.151Z,164.73
2022-07-31T06:35:45.616Z,169.59
2022-07-31T06:36:40.710Z,170.63
2022-07-31T06:37:35.739Z,169.59
2022-07-31T06:38:30.754Z,167.04
2022-07-31T06:39:54.040Z,169.93
2022-07-31T06:40:21.840Z,167.38
2022-07-31T06:41:15.841Z,167.54
2022-07-31T06:42:10.911Z,168.90
2022-07-31T06:43:06.935Z,170.46
2022-07-31T06:44:01.150Z,172.57
2022-07-31T06:44:56.218Z,176.77
2022-07-31T06:45:52.635Z,177.90
2022-07-31T06:46:49.221Z,180.21
2022-07-31T06:47:41.328Z,176.40
2022-07-31T06:48:36.430Z,167.04
2022-07-31T06:49:31.957Z,171.15
2022-07-31T06:50:26.939Z,186.66
2022-07-31T06:51:31.386Z,197.82
2022-07-31T06:52:18.066Z,204.48
2022-07-31T06:53:12.450Z,212.01
2022-07-31T06:54:07.926Z,215.63
2022-07-31T06:55:03.557Z,227.28
2022-07-31T06:55:59.016Z,240.09
2022-07-31T06:56:54.457Z,243.29
2022-07-31T06:57:49.936Z,242.39
2022-07-31T06:58:45.397Z,251.50
2022-07-31T06:59:41.023Z,256.61
2022-07-31T07:00:36.384Z,268.14
2022-07-31T07:01:31.874Z,272.37
2022-07-31T07:02:27.458Z,274.65
2022-07-31T07:03:22.803Z,270.80
2022-07-31T07:04:18.288Z,268.36
2022-07-31T07:05:13.778Z,263.62
2022-07-31T07:06:08.833Z,261.94
2022-07-31T07:07:03.892Z,250.35
2022-07-31T07:07:58.955Z,240.79
2022-07-31T07:08:54.050Z,236.80
2022-07-31T07:09:49.222Z,233.76
2022-07-31T07:10:44.316Z,228.87
2022-07-31T07:11:39.489Z,222.35
2022-07-31T07:12:36.308Z,216.91
2022-07-31T07:13:46.367Z,212.97
2022-07-31T07:14:27.398Z,210.78
2022-07-31T07:15:21.391Z,203.21
2022-07-31T07:16:17.666Z,199.51
2022-07-31T07:17:13.083Z,194.08
2022-07-31T07:18:08.599Z,196.52
2022-07-31T07:19:04.071Z,196.75
2022-07-31T07:19:59.669Z,193.28
2022-07-31T07:20:55.293Z,196.75
2022-07-31T07:21:50.639Z,198.90
2022-07-31T07:22:46.245Z,199.99
2022-07-31T07:23:41.579Z,199.38
2022-07-31T07:24:37.069Z,195.00
2022-07-31T07:25:33.888Z,190.03
2022-07-31T07:26:29.246Z,186.15
2022-07-31T07:27:24.721Z,186.04
2022-07-31T07:28:30.065Z,184.19
2022-07-31T07:29:16.692Z,182.38
2022-07-31T07:30:11.087Z,177.72
2022-07-31T07:31:06.712Z,171.15
2022-07-31T07:32:02.446Z,169.42
2022-07-31T07:32:57.652Z,168.39
2022-07-31T07:33:53.261Z,172.93
2022-07-31T07:34:48.781Z,179.43
2022-07-31T07:35:45.792Z,181.98
2022-07-31T07:36:40.225Z,185.31
2022-07-31T07:37:39.018Z,190.80
2022-07-31T07:38:30.822Z,193.73
2022-07-31T07:39:25.844Z,196.05
2022-07-31T07:40:20.844Z,207.19
2022-07-31T07:41:18.516Z,207.45
2022-07-31T07:42:10.944Z,207.06
2022-07-31T07:43:05.942Z,204.10
2022-07-31T07:44:01.065Z,202.71
2022-07-31T07:44:56.106Z,198.90
2022-07-31T07:45:51.119Z,190.69
2022-07-31T07:46:46.231Z,194.31
2022-07-31T07:47:53.815Z,196.99
2022-07-31T07:48:37.309Z,200.60
2022-07-31T07:49:31.423Z,203.97
2022-07-31T07:50:27.080Z,203.72
2022-07-31T07:51:21.731Z,204.48
2022-07-31T07:52:17.136Z,202.21
2022-07-31T07:53:12.661Z,198.06
2022-07-31T07:54:08.233Z,198.06
2022-07-31T07:55:03.846Z,199.75
2022-07-31T07:55:59.172Z,205.76
2022-07-31T07:56:54.582Z,210.24
2022-07-31T07:57:50.091Z,207.45
2022-07-31T07:58:45.535Z,204.22
2022-07-31T07:59:41.176Z,198.78
2022-07-31T08:00:36.659Z,197.35
2022-07-31T08:01:32.171Z,193.28
2022-07-31T08:02:27.564Z,192.15
2022-07-31T08:03:48.619Z,186.36
2022-07-31T08:04:19.777Z,186.45
2022-07-31T08:05:14.078Z,187.43
2022-07-31T08:06:09.551Z,188.29
2022-07-31T08:07:05.318Z,185.83
2022-07-31T08:08:00.821Z,185.62
2022-07-31T08:08:56.309Z,192.26
2022-07-31T08:09:51.811Z,195.12
2022-07-31T08:10:47.277Z,196.75
2022-07-31T08:11:42.669Z,193.85
2022-07-31T08:12:38.103Z,192.93
2022-07-31T08:13:34.169Z,191.03
2022-07-31T08:14:29.610Z,188.83
2022-07-31T08:15:25.142Z,188.07
2022-07-31T08:16:20.738Z,190.80
2022-07-31T08:17:16.129Z,193.28
2022-07-31T08:18:11.271Z,192.93
2022-07-31T08:19:06.350Z,193.05
2022-07-31T08:20:01.475Z,203.21
2022-07-31T08:20:56.487Z,205.24
2022-07-31T08:21:55.673Z,206.80
2022-07-31T08:22:51.204Z,208.37
2022-07-31T08:23:46.762Z,213.39
2022-07-31T08:24:42.558Z,217.49
2022-07-31T08:25:38.073Z,224.02
2022-07-31T08:26:33.593Z,223.41
2022-07-31T08:27:40.222Z,223.87
2022-07-31T08:28:26.282Z,229.03
2022-07-31T08:29:27.518Z,232.60
2022-07-31T08:30:17.354Z,237.65
2022-07-31T08:31:12.034Z,233.59
2022-07-31T08:32:08.182Z,233.59
2022-07-31T08:33:03.570Z,237.31
2022-07-31T08:33:59.529Z,241.50
2022-07-31T08:34:55.037Z,248.07
2022-07-31T08:35:50.804Z,244.02
2022-07-31T08:36:46.334Z,238.34
2022-07-31T08:37:52.612Z,237.31
2022-07-31T08:38:38.358Z,230.15
2022-07-31T08:39:32.922Z,236.80
2022-07-31T08:40:28.585Z,246.95
2022-07-31T08:41:24.119Z,259.45
2022-07-31T08:42:19.668Z,282.21
2022-07-31T08:44:12.666Z,274.42
2022-07-31T08:45:07.396Z,257.62
2022-07-31T08:46:03.015Z,240.44
2022-07-31T08:46:58.491Z,348.82
2022-07-31T08:47:54.150Z,426.91
2022-07-31T08:48:49.605Z,451.48
2022-07-31T08:49:45.404Z,454.25
2022-07-31T08:50:40.909Z,501.00
2022-07-31T08:51:51.236Z,498.75
2022-07-31T08:52:33.117Z,564.63
2022-07-31T08:53:27.583Z,627.31
2022-07-31T08:54:23.100Z,696.79
2022-07-31T08:55:55.523Z,718.57
2022-07-31T08:56:16.108Z,746.73
2022-07-31T08:57:12.868Z,843.34
2022-07-31T08:58:06.298Z,848.70
2022-07-31T08:59:01.876Z,815.02
2022-07-31T08:59:57.528Z,796.06
2022-07-31T09:00:52.969Z,875.98
2022-07-31T09:01:48.761Z,930.96
2022-07-31T09:02:44.156Z,1030.09
2022-07-31T09:03:39.665Z,1062.90
2022-07-31T09:04:35.526Z,1037.30
2022-07-31T09:05:41.913Z,1066.29
2022-07-31T09:06:27.514Z,1057.84
2022-07-31T09:07:21.958Z,1063.74
2022-07-31T09:08:17.780Z,1030.89
2022-07-31T09:09:13.300Z,960.43
2022-07-31T09:10:08.774Z,897.18
2022-07-31T09:11:06.159Z,899.60
2022-07-31T09:12:00.805Z,875.98
2022-07-31T09:12:56.537Z,894.17
2022-07-31T09:14:01.472Z,917.53
2022-07-31T09:14:48.949Z,1026.13
2022-07-31T09:15:43.496Z,1114.36
2022-07-31T09:16:39.445Z,1169.00
2022-07-31T09:17:34.998Z,1162.89
2022-07-31T09:18:30.537Z,1113.43
2022-07-31T09:19:51.626Z,1024.56
2022-07-31T09:20:22.451Z,936.18
2022-07-31T09:21:17.137Z,852.49
2022-07-31T09:22:12.595Z,855.22
2022-07-31T09:23:08.067Z,985.24
2022-07-31T09:24:03.789Z,1013.67
2022-07-31T09:24:59.334Z,1038.10
2022-07-31T09:25:55.028Z,1005.27
2022-07-31T09:26:50.513Z,1026.13
2022-07-31T09:27:46.369Z,1035.69
2022-07-31T09:28:41.706Z,1009.83
2022-07-31T09:29:37.112Z,988.89
2022-07-31T09:30:32.813Z,994.04
2022-07-31T09:31:28.205Z,1007.55
2022-07-31T09:32:23.644Z,1109.73
2022-07-31T09:33:19.941Z,1203.79
2022-07-31T09:34:15.497Z,1250.00
2022-07-31T09:35:11.363Z,1276.29
2022-07-31T09:36:06.849Z,1339.02
2022-07-31T09:37:02.559Z,1311.40
2022-07-31T09:37:58.074Z,1344.41
2022-07-31T09:38:53.643Z,1333.67
2022-07-31T09:39:52.396Z,1370.64
2022-07-31T09:40:55.355Z,1411.20
2022-07-31T09:41:58.267Z,1360.86
2022-07-31T09:42:36.434Z,1376.29
2022-07-31T09:43:31.505Z,1435.48
2022-07-31T09:44:26.228Z,1468.65
2022-07-31T09:45:20.616Z,1500.00
2022-07-31T09:46:15.778Z,1470.26
2022-07-31T09:47:10.868Z,1323.09
2022-07-31T09:48:05.890Z,1369.23
2022-07-31T09:49:00.967Z,1463.82
2022-07-31T09:49:56.016Z,1510.18
2022-07-31T09:50:51.090Z,1493.29
2022-07-31T09:51:46.139Z,1517.91
2022-07-31T09:52:41.159Z,1511.89
2022-07-31T09:53:39.288Z,1510.18
2022-07-31T09:54:32.378Z,1618.18
2022-07-31T09:55:26.497Z,1787.15
2022-07-31T09:56:21.539Z,1753.12
2022-07-31T09:57:16.999Z,1783.57
2022-07-31T09:58:13.532Z,1799.19
2022-07-31T09:59:08.887Z,1881.61
2022-07-31T10:00:04.647Z,2003.00
2022-07-31T10:01:00.140Z,2130.89
2022-07-31T10:01:55.467Z,2188.52
2022-07-31T10:02:51.327Z,2249.37
2022-07-31T10:03:46.795Z,2335.96
2022-07-31T10:04:42.616Z,2447.30
2022-07-31T10:05:38.109Z,2325.78
2022-07-31T10:06:33.440Z,2217.61
2022-07-31T10:07:32.565Z,2219.45
2022-07-31T10:08:24.863Z,2371.23
2022-07-31T10:09:20.313Z,2335.96
2022-07-31T10:10:16.846Z,1992.54
2022-07-31T10:11:16.690Z,2136.00
2022-07-31T10:12:08.054Z,2325.78
2022-07-31T10:13:03.526Z,2186.73
2022-07-31T10:13:58.957Z,2253.17
2022-07-31T10:14:54.689Z,2352.42
2022-07-31T10:15:50.394Z,2559.92
2022-07-31T10:16:46.126Z,2659.36
2022-07-31T10:17:41.444Z,2604.88
2022-07-31T10:18:38.601Z,2609.97
2022-07-31T10:19:32.569Z,2476.81
2022-07-31T10:20:28.000Z,2460.83
2022-07-31T10:21:23.441Z,2490.67
2022-07-31T10:22:19.854Z,2507.04
2022-07-31T10:23:15.298Z,2567.31
2022-07-31T10:24:11.142Z,2422.87
2022-07-31T10:25:06.662Z,2398.92
2022-07-31T10:26:02.105Z,2490.67
2022-07-31T10:27:00.728Z,2486.03
2022-07-31T10:27:53.253Z,2516.49
2022-07-31T10:28:49.022Z,2627.95
2022-07-31T10:29:44.469Z,2778.36
2022-07-31T10:30:40.111Z,2784.15
2022-07-31T10:31:35.830Z,2572.25
2022-07-31T10:32:31.261Z,2599.80
2022-07-31T10:33:43.736Z,2667.33
2022-07-31T10:34:23.973Z,2705.17
2022-07-31T10:35:18.605Z,2752.58
2022-07-31T10:36:14.465Z,2927.63
2022-07-31T10:37:11.207Z,2855.61
2022-07-31T10:38:05.415Z,3013.54
2022-07-31T10:39:00.480Z,3074.27
2022-07-31T10:39:55.492Z,2953.54
2022-07-31T10:40:50.562Z,2960.09
2022-07-31T10:41:45.617Z,2886.49
2022-07-31T10:42:40.627Z,3104.65
2022-07-31T10:43:41.250Z,3310.60
2022-07-31T10:44:38.624Z,3130.13
2022-07-31T10:45:32.146Z,2858.67
2022-07-31T10:46:27.991Z,2648.81
2022-07-31T10:47:23.319Z,2511.76
2022-07-31T10:48:18.769Z,2688.82
2022-07-31T10:49:15.137Z,2705.17
2022-07-31T10:50:10.695Z,2769.71
2022-07-31T10:51:06.512Z,2889.61
2022-07-31T10:52:01.966Z,2883.37
2022-07-31T10:53:00.620Z,2924.43
2022-07-31T10:53:55.256Z,3090.28
2022-07-31T10:54:48.519Z,2858.67
2022-07-31T10:55:44.243Z,2775.47
2022-07-31T10:56:39.684Z,3144.88
2022-07-31T10:57:35.143Z,3292.23
2022-07-31T10:58:31.585Z,3362.72
2022-07-31T10:59:26.097Z,3356.38
2022-07-31T11:00:21.560Z,3304.46
2022-07-31T11:01:17.654Z,3268.05
2022-07-31T11:02:11.676Z,3032.37
2022-07-31T11:03:06.736Z,2730.06
2022-07-31T11:04:02.783Z,2469.94
2022-07-31T11:04:59.146Z,2090.84
2022-07-31T11:06:01.651Z,1976.31
2022-07-31T11:06:47.785Z,2016.62
2022-07-31T11:07:42.173Z,2003.00
2022-07-31T11:08:37.190Z,2199.34
2022-07-31T11:09:32.294Z,2241.81
2022-07-31T11:10:27.327Z,2335.96
2022-07-31T11:11:25.990Z,2375.45
2022-07-31T11:12:17.505Z,2584.71
2022-07-31T11:13:12.554Z,2625.37
2022-07-31T11:14:07.585Z,2918.03
2022-07-31T11:15:02.658Z,2883.37
2022-07-31T11:15:57.706Z,2472.22
2022-07-31T11:16:52.797Z,2607.42
2022-07-31T11:18:22.107Z,2137.71
2022-07-31T11:18:44.423Z,2270.41
2022-07-31T11:19:41.145Z,2635.74
2022-07-31T11:20:33.795Z,2699.70
2022-07-31T11:21:38.559Z,2500.00
2022-07-31T11:22:31.713Z,2315.70
2022-07-31T11:23:20.093Z,2414.10
2022-07-31T11:24:14.198Z,2675.35
2022-07-31T11:25:09.256Z,2696.97
2022-07-31T11:26:04.276Z,2643.56
2022-07-31T11:27:03.641Z,2456.30
2022-07-31T11:27:58.367Z,2289.88